Time;durP1;ratioP1;P1;durP2;ratioP2;P2;SDS_P1;SDS_P2;PMS_P1;PMS_P2;Temp;Humidity;BMP_temperature;BMP_pressure;BME280_temperature;BME280_humidity;BME280_pressure;Samples;Min_cycle;Max_cycle;Signal;HPM_P1;HPM_P2
2023/08/25 00:01:34;;;;;;;5.70;3.50;;;;;;;14.14;100.00;100214.21;105918;1268;74656;-65
2023/08/25 00:04:01;;;;;;;7.60;4.10;;;;;;;14.13;100.00;100213.36;105461;1259;65675;-63
2023/08/25 00:06:28;;;;;;;8.10;3.90;;;;;;;14.11;100.00;100214.77;105827;1254;71509;-62
2023/08/25 00:08:55;;;;;;;6.70;3.40;;;;;;;14.10;100.00;100216.20;105773;1254;61356;-61
2023/08/25 00:11:22;;;;;;;6.70;3.70;;;;;;;14.09;100.00;100219.39;105805;1254;61325;-64
2023/08/25 00:13:49;;;;;;;7.30;3.10;;;;;;;14.09;100.00;100219.78;105995;1254;75475;-64
2023/08/25 00:16:16;;;;;;;5.70;3.50;;;;;;;14.09;100.00;100217.19;105554;1254;67648;-63
2023/08/25 00:18:45;;;;;;;6.30;2.90;;;;;;;14.10;100.00;100216.32;106294;1254;72647;-63
2023/08/25 00:21:15;;;;;;;5.40;3.00;;;;;;;14.10;100.00;100214.91;105673;1254;61276;-62
2023/08/25 00:23:42;;;;;;;5.40;2.70;;;;;;;14.11;100.00;100205.70;105927;1256;61238;-62
2023/08/25 00:26:09;;;;;;;6.40;3.20;;;;;;;14.10;100.00;100199.42;105642;1256;74708;-61
2023/08/25 00:28:36;;;;;;;6.20;3.60;;;;;;;14.08;100.00;100207.41;105695;1254;67146;-62
2023/08/25 00:31:03;;;;;;;3.80;2.40;;;;;;;14.06;100.00;100200.85;105609;1254;72736;-63
2023/08/25 00:33:30;;;;;;;6.20;3.30;;;;;;;14.03;100.00;100203.64;105695;1259;61094;-64
2023/08/25 00:35:57;;;;;;;6.80;2.90;;;;;;;14.00;100.00;100207.02;105971;1259;61250;-63
2023/08/25 00:38:28;;;;;;;6.00;3.10;;;;;;;13.96;100.00;100210.91;105457;1259;74779;-60
2023/08/25 00:40:55;;;;;;;7.10;3.70;;;;;;;13.89;100.00;100211.30;105835;1254;66540;-60
2023/08/25 00:43:22;;;;;;;6.90;3.70;;;;;;;13.81;100.00;100213.70;105787;1254;71007;-60
2023/08/25 00:45:49;;;;;;;6.00;3.60;;;;;;;13.74;100.00;100211.77;105784;1254;61299;-65
2023/08/25 00:48:16;;;;;;;7.90;3.40;;;;;;;13.67;100.00;100211.30;105597;1254;61241;-63
2023/08/25 00:50:43;;;;;;;5.60;2.80;;;;;;;13.59;100.00;100208.09;105836;1256;74608;-62
2023/08/25 00:53:12;;;;;;;6.10;2.60;;;;;;;13.54;100.00;100214.23;105428;1254;67093;-62
2023/08/25 00:55:39;;;;;;;5.70;3.20;;;;;;;13.51;100.00;100217.64;105342;1257;72012;-64
2023/08/25 00:58:07;;;;;;;7.60;3.80;;;;;;;13.48;100.00;100217.45;105602;1260;61235;-64
2023/08/25 01:00:34;;;;;;;6.90;3.00;;;;;;;13.47;100.00;100220.47;105919;1254;61134;-63
2023/08/25 01:03:01;;;;;;;7.40;3.10;;;;;;;13.44;100.00;100218.73;105418;1254;73578;-61
2023/08/25 01:05:28;;;;;;;6.30;3.40;;;;;;;13.42;100.00;100218.27;105555;1260;65898;-61
2023/08/25 01:07:57;;;;;;;7.50;3.40;;;;;;;13.40;100.00;100217.45;105488;1262;72677;-65
2023/08/25 01:10:28;;;;;;;4.80;2.70;;;;;;;13.39;100.00;100216.41;105597;1254;62036;-62
2023/08/25 01:13:02;;;;;;;5.20;2.50;;;;;;;13.37;100.00;100216.45;105952;1254;61172;-62
2023/08/25 01:15:30;;;;;;;5.30;2.80;;;;;;;13.34;100.00;100222.05;105721;1254;74737;-61
2023/08/25 01:18:16;;;;;;;8.10;3.30;;;;;;;13.32;100.00;100221.96;105705;1257;67288;-63
2023/08/25 01:20:46;;;;;;;4.70;2.90;;;;;;;13.31;100.00;100224.11;106017;1254;72187;-61
2023/08/25 01:23:17;;;;;;;7.30;3.80;;;;;;;13.27;100.00;100218.50;105956;1254;61287;-62
2023/08/25 01:25:45;;;;;;;6.50;3.40;;;;;;;13.23;100.00;100219.85;105657;1256;61310;-63
2023/08/25 01:28:12;;;;;;;5.90;3.10;;;;;;;13.18;100.00;100218.23;105466;1260;73458;-63
2023/08/25 01:30:39;;;;;;;4.90;3.10;;;;;;;13.15;100.00;100216.14;105453;1254;67161;-62
2023/08/25 01:33:07;;;;;;;5.20;3.40;;;;;;;13.13;100.00;100218.17;106017;1258;72219;-63
2023/08/25 01:35:50;;;;;;;11.70;3.80;;;;;;;13.07;100.00;100217.54;106070;1255;61335;-64
2023/08/25 01:38:23;;;;;;;6.20;2.50;;;;;;;13.02;100.00;100221.91;105421;1260;61227;-62
2023/08/25 01:41:02;;;;;;;5.40;3.00;;;;;;;12.99;100.00;100226.79;105729;1254;74472;-62
2023/08/25 01:43:32;;;;;;;10.70;3.20;;;;;;;12.96;100.00;100227.59;105524;1259;65852;-62
2023/08/25 01:45:59;;;;;;;8.20;4.00;;;;;;;12.94;100.00;100233.14;105634;1254;71364;-62
2023/08/25 01:48:27;;;;;;;7.80;3.20;;;;;;;12.89;100.00;100229.43;105662;1254;61139;-62
2023/08/25 01:50:54;;;;;;;8.70;3.30;;;;;;;12.86;100.00;100226.92;105454;1257;61266;-61
2023/08/25 01:53:22;;;;;;;6.10;3.20;;;;;;;12.83;100.00;100228.73;105355;1260;75356;-62
2023/08/25 01:55:49;;;;;;;5.80;3.50;;;;;;;12.80;100.00;100227.06;105959;1257;66068;-64
2023/08/25 01:58:16;;;;;;;5.10;3.00;;;;;;;12.77;100.00;100229.52;105420;1257;72728;-61
2023/08/25 02:00:43;;;;;;;5.80;2.90;;;;;;;12.75;100.00;100227.26;105348;1257;61225;-63
2023/08/25 02:03:13;;;;;;;5.10;2.90;;;;;;;12.75;100.00;100228.87;105416;1259;61152;-63
2023/08/25 02:05:40;;;;;;;8.10;3.20;;;;;;;12.75;100.00;100228.66;105617;1254;74499;-64
2023/08/25 02:08:08;;;;;;;5.10;3.40;;;;;;;12.77;100.00;100231.61;105364;1254;68588;-62
2023/08/25 02:10:34;;;;;;;5.50;3.00;;;;;;;12.79;100.00;100238.50;105351;1260;70729;-63
2023/08/25 02:13:02;;;;;;;6.50;3.40;;;;;;;12.80;100.00;100236.11;106144;1256;61327;-64
2023/08/25 02:15:29;;;;;;;6.00;3.40;;;;;;;12.78;100.00;100236.36;105943;1259;61115;-66
2023/08/25 02:17:55;;;;;;;6.90;3.50;;;;;;;12.75;100.00;100233.30;105484;1259;73942;-63
2023/08/25 02:20:24;;;;;;;5.80;3.40;;;;;;;12.72;100.00;100235.34;105519;1254;67161;-63
2023/08/25 02:22:52;;;;;;;7.50;3.70;;;;;;;12.69;100.00;100233.54;105815;1254;72662;-61
2023/08/25 02:25:19;;;;;;;7.20;3.60;;;;;;;12.66;100.00;100231.46;105892;1254;61393;-61
2023/08/25 02:27:46;;;;;;;7.70;3.50;;;;;;;12.64;100.00;100228.56;105741;1254;61187;-63
2023/08/25 02:30:13;;;;;;;6.10;3.80;;;;;;;12.63;100.00;100229.96;105590;1254;74467;-62
2023/08/25 02:32:40;;;;;;;7.80;4.20;;;;;;;12.61;100.00;100224.27;105549;1254;67257;-62
2023/08/25 02:35:08;;;;;;;8.50;3.50;;;;;;;12.59;100.00;100223.95;105682;1259;72704;-62
2023/08/25 02:37:35;;;;;;;7.10;3.70;;;;;;;12.57;100.00;100227.05;105634;1254;62508;-62
2023/08/25 02:40:02;;;;;;;6.80;3.00;;;;;;;12.55;100.00;100226.73;105710;1254;61224;-63
2023/08/25 02:42:30;;;;;;;5.40;3.10;;;;;;;12.54;100.00;100227.45;105429;1260;74422;-62
2023/08/25 02:44:57;;;;;;;5.10;3.30;;;;;;;12.53;100.00;100231.86;105610;1254;67205;-63
2023/08/25 02:47:24;;;;;;;6.40;4.30;;;;;;;12.53;100.00;100233.95;106030;1254;72739;-65
2023/08/25 02:49:51;;;;;;;8.40;3.40;;;;;;;12.56;100.00;100234.38;105420;1254;61813;-63
2023/08/25 02:52:18;;;;;;;7.50;3.70;;;;;;;12.58;100.00;100234.55;105391;1259;60100;-62
2023/08/25 02:54:46;;;;;;;5.60;3.50;;;;;;;12.61;100.00;100234.19;105856;1256;76262;-61
2023/08/25 02:57:13;;;;;;;7.60;4.00;;;;;;;12.65;100.00;100232.31;105834;1258;65691;-61
2023/08/25 02:59:40;;;;;;;9.20;2.80;;;;;;;12.68;100.00;100232.71;105487;1259;71484;-62
2023/08/25 03:02:08;;;;;;;5.40;3.50;;;;;;;12.74;100.00;100231.27;105426;1257;61398;-62
2023/08/25 03:04:35;;;;;;;6.70;3.70;;;;;;;12.79;100.00;100231.66;105700;1255;61218;-62
2023/08/25 03:07:02;;;;;;;7.80;4.40;;;;;;;12.86;100.00;100234.54;106128;1254;74555;-62
2023/08/25 03:09:30;;;;;;;8.80;3.90;;;;;;;12.95;100.00;100239.58;105624;1254;66083;-63
2023/08/25 03:11:57;;;;;;;6.20;3.90;;;;;;;13.05;100.00;100244.02;105804;1257;71463;-63
2023/08/25 03:14:28;;;;;;;5.60;3.30;;;;;;;13.16;100.00;100247.29;105352;1254;61813;-62
2023/08/25 03:16:55;;;;;;;6.20;3.30;;;;;;;13.28;100.00;100250.64;105672;1260;61244;-61
2023/08/25 03:19:22;;;;;;;8.00;3.80;;;;;;;13.40;100.00;100251.89;106020;1258;74692;-66
2023/08/25 03:21:49;;;;;;;5.50;3.40;;;;;;;13.56;100.00;100253.73;105555;1254;66899;-62
2023/08/25 03:24:17;;;;;;;8.00;4.10;;;;;;;13.76;100.00;100250.70;105530;1254;72671;-62
2023/08/25 03:26:44;;;;;;;6.10;3.60;;;;;;;13.95;100.00;100246.19;105726;1259;61787;-62
2023/08/25 03:29:11;;;;;;;7.70;4.00;;;;;;;14.09;100.00;100249.82;105461;1259;61138;-61
2023/08/25 03:31:38;;;;;;;6.40;3.70;;;;;;;14.24;100.00;100246.95;105679;1256;73333;-63
2023/08/25 03:34:05;;;;;;;6.90;3.50;;;;;;;14.49;100.00;100240.70;105191;1259;67216;-61
2023/08/25 03:36:33;;;;;;;7.50;3.30;;;;;;;14.98;100.00;100241.57;105592;1259;72479;-61
2023/08/25 03:39:00;;;;;;;5.10;3.00;;;;;;;15.78;100.00;100239.64;105741;1255;62126;-62
2023/08/25 03:41:27;;;;;;;7.10;3.40;;;;;;;16.75;100.00;100233.87;105491;1254;59813;-62
2023/08/25 03:43:54;;;;;;;4.70;2.80;;;;;;;17.79;100.00;100225.13;105725;1259;73536;-65
2023/08/25 03:46:21;;;;;;;6.10;3.30;;;;;;;18.80;100.00;100212.77;105611;1257;67890;-62
2023/08/25 03:48:49;;;;;;;6.10;3.30;;;;;;;19.81;100.00;100193.04;105713;1254;72422;-62
2023/08/25 03:51:15;;;;;;;5.10;3.10;;;;;;;20.81;100.00;100177.97;105759;1257;61311;-61
2023/08/25 03:53:43;;;;;;;5.80;3.20;;;;;;;21.75;100.00;100159.61;105721;1258;59524;-64
2023/08/25 03:56:11;;;;;;;4.90;3.10;;;;;;;22.63;100.00;100142.70;105578;1254;74230;-62
2023/08/25 03:58:39;;;;;;;6.40;3.50;;;;;;;23.44;100.00;100135.68;106231;1254;67177;-61
2023/08/25 04:01:08;;;;;;;6.40;3.50;;;;;;;24.23;100.00;100135.34;105850;1259;71631;-62
2023/08/25 04:03:36;;;;;;;5.90;3.70;;;;;;;24.95;100.00;100134.20;105707;1255;61330;-62
2023/08/25 04:06:03;;;;;;;7.90;4.20;;;;;;;25.56;100.00;100136.93;105483;1259;61114;-62
2023/08/25 04:08:31;;;;;;;8.90;5.40;;;;;;;26.13;100.00;100136.48;105687;1254;74727;-61
2023/08/25 04:10:58;;;;;;;8.40;4.90;;;;;;;26.69;100.00;100133.72;105564;1254;66494;-62
2023/08/25 04:13:25;;;;;;;9.60;5.80;;;;;;;27.20;100.00;100130.85;105567;1255;72734;-62
2023/08/25 04:15:59;;;;;;;7.30;4.40;;;;;;;27.65;99.42;100130.34;105557;1259;61190;-67
2023/08/25 04:18:26;;;;;;;6.30;4.60;;;;;;;27.95;91.73;100132.52;105511;1260;61238;-62
2023/08/25 04:20:53;;;;;;;7.10;4.50;;;;;;;27.87;85.15;100130.58;105970;1259;74500;-62
2023/08/25 04:23:24;;;;;;;6.30;4.70;;;;;;;27.86;81.13;100129.49;105926;1259;66188;-62
2023/08/25 04:25:51;;;;;;;7.30;4.30;;;;;;;28.01;76.64;100130.17;105904;1254;71473;-64
2023/08/25 04:28:19;;;;;;;7.70;4.00;;;;;;;28.24;72.86;100128.75;105638;1254;61278;-62
2023/08/25 04:30:46;;;;;;;6.40;4.20;;;;;;;28.54;67.76;100131.86;105734;1254;61310;-60
2023/08/25 04:33:35;;;;;;;7.40;4.20;;;;;;;28.93;63.79;100128.97;105233;1262;75506;-63
2023/08/25 04:36:03;;;;;;;7.40;5.10;;;;;;;29.31;58.71;100126.81;105499;1259;66460;-62
2023/08/25 04:38:30;;;;;;;6.50;3.80;;;;;;;29.67;55.96;100125.73;105582;1257;72536;-64
2023/08/25 04:40:57;;;;;;;6.00;4.30;;;;;;;30.07;52.82;100128.09;105883;1254;61080;-63
2023/08/25 04:43:24;;;;;;;6.40;4.10;;;;;;;30.45;50.06;100125.61;105935;1254;61286;-66
2023/08/25 04:45:52;;;;;;;4.80;3.50;;;;;;;30.74;47.56;100127.33;105585;1258;74736;-66
2023/08/25 04:48:19;;;;;;;5.30;3.30;;;;;;;31.01;46.10;100124.36;105674;1259;65790;-63
2023/08/25 04:50:47;;;;;;;5.00;3.20;;;;;;;31.33;44.73;100126.04;105711;1254;71410;-62
2023/08/25 04:53:14;;;;;;;5.60;3.50;;;;;;;31.73;43.46;100123.70;106352;1255;61349;-62
2023/08/25 04:55:42;;;;;;;6.70;3.90;;;;;;;32.11;41.73;100126.65;105880;1254;61172;-66
2023/08/25 04:58:09;;;;;;;5.50;3.40;;;;;;;32.39;40.33;100127.18;105510;1261;74772;-63
2023/08/25 05:00:36;;;;;;;4.80;3.10;;;;;;;32.52;38.98;100122.10;105410;1254;67300;-64
2023/08/25 05:03:04;;;;;;;4.60;2.70;;;;;;;32.53;39.12;100120.20;105459;1260;72686;-61
2023/08/25 05:05:32;;;;;;;4.20;2.80;;;;;;;32.78;39.21;100118.98;106100;1257;61237;-66
2023/08/25 05:07:59;;;;;;;6.40;3.60;;;;;;;33.23;37.93;100120.95;105449;1260;61262;-67
2023/08/25 05:10:26;;;;;;;4.60;2.90;;;;;;;33.56;36.27;100118.66;105403;1261;73950;-62
2023/08/25 05:12:53;;;;;;;4.20;3.00;;;;;;;33.82;35.93;100119.66;105550;1259;65689;-63
2023/08/25 05:15:20;;;;;;;4.10;3.10;;;;;;;34.13;35.27;100120.23;105583;1254;72970;-67
2023/08/25 05:17:47;;;;;;;4.30;2.80;;;;;;;34.43;34.40;100119.80;105501;1256;61338;-64
2023/08/25 05:20:17;;;;;;;4.00;3.10;;;;;;;34.64;33.83;100121.90;105634;1254;61756;-62
2023/08/25 05:22:44;;;;;;;5.20;3.00;;;;;;;34.83;33.41;100119.29;105595;1260;74664;-63
2023/08/25 05:25:12;;;;;;;5.30;3.30;;;;;;;35.04;33.15;100116.95;105992;1254;61257;-64
2023/08/25 05:27:40;;;;;;;5.70;3.80;;;;;;;35.30;32.82;100116.30;105930;1254;62841;-64
2023/08/25 05:30:07;;;;;;;5.80;4.30;;;;;;;35.60;32.63;100111.10;105641;1259;60389;-63
2023/08/25 05:32:35;;;;;;;6.10;4.40;;;;;;;35.86;31.79;100111.02;105546;1254;61176;-63
2023/08/25 05:35:06;;;;;;;6.60;4.60;;;;;;;36.03;31.48;100112.53;105937;1254;66058;-64
2023/08/25 05:37:34;;;;;;;7.00;5.20;;;;;;;36.19;31.33;100114.77;105562;1254;67272;-68
2023/08/25 05:40:05;;;;;;;8.10;4.60;;;;;;;36.26;31.02;100112.88;105845;1254;62878;-66
2023/08/25 05:42:35;;;;;;;6.20;3.50;;;;;;;36.24;31.01;100114.40;105600;1259;61279;-63
2023/08/25 05:45:03;;;;;;;7.80;4.20;;;;;;;36.24;30.91;100114.31;105450;1257;61741;-63
2023/08/25 05:47:32;;;;;;;7.40;4.20;;;;;;;36.22;31.00;100111.66;105913;1254;64786;-61
2023/08/25 05:49:59;;;;;;;5.30;3.30;;;;;;;36.21;31.02;100110.86;105328;1254;61105;-64
2023/08/25 05:52:26;;;;;;;6.40;3.90;;;;;;;36.16;31.09;100110.91;105339;1258;63834;-62
2023/08/25 05:54:53;;;;;;;5.80;3.20;;;;;;;36.09;31.10;100112.88;106110;1254;61205;-65
2023/08/25 05:57:20;;;;;;;6.10;3.40;;;;;;;36.13;30.99;100116.19;105546;1254;61279;-63
2023/08/25 05:59:47;;;;;;;4.90;3.10;;;;;;;36.25;31.20;100113.16;105871;1254;65411;-68
2023/08/25 06:02:14;;;;;;;5.30;2.90;;;;;;;36.40;31.02;100112.75;105738;1257;61241;-64
2023/08/25 06:04:41;;;;;;;6.30;3.30;;;;;;;36.50;30.75;100110.46;105437;1259;73281;-61
2023/08/25 06:07:08;;;;;;;5.70;3.40;;;;;;;36.50;30.69;100111.86;105511;1254;61234;-61
2023/08/25 06:09:35;;;;;;;5.70;3.20;;;;;;;36.44;30.44;100120.20;105556;1258;61157;-62
2023/08/25 06:12:02;;;;;;;4.80;2.90;;;;;;;36.37;30.60;100122.24;105958;1259;65961;-65
2023/08/25 06:14:30;;;;;;;7.40;2.80;;;;;;;36.35;30.70;100121.58;106072;1254;61247;-63
2023/08/25 06:17:01;;;;;;;4.60;3.10;;;;;;;36.29;30.61;100115.73;105592;1254;62847;-63
2023/08/25 06:19:28;;;;;;;6.00;3.10;;;;;;;36.26;30.76;100113.64;105844;1254;61247;-64
2023/08/25 06:21:55;;;;;;;5.50;3.30;;;;;;;36.25;30.61;100115.41;105625;1254;61237;-63
2023/08/25 06:24:24;;;;;;;4.30;3.10;;;;;;;36.30;30.85;100115.58;105695;1259;66651;-64
2023/08/25 06:26:52;;;;;;;5.40;3.50;;;;;;;36.44;30.78;100115.30;105910;1259;61323;-62
2023/08/25 06:29:19;;;;;;;6.20;3.80;;;;;;;36.65;30.80;100116.07;105732;1254;62699;-62
2023/08/25 06:31:46;;;;;;;8.90;3.20;;;;;;;36.83;30.60;100115.73;105658;1259;61362;-63
2023/08/25 06:34:14;;;;;;;6.10;2.80;;;;;;;36.99;30.13;100119.88;106059;1259;61240;-65
2023/08/25 06:36:40;;;;;;;5.30;2.80;;;;;;;37.26;28.92;100116.95;105771;1258;65536;-64
2023/08/25 06:39:07;;;;;;;4.20;2.70;;;;;;;37.56;28.93;100118.23;105658;1254;61206;-64
2023/08/25 06:41:34;;;;;;;4.00;3.10;;;;;;;37.78;28.29;100121.15;105736;1254;63901;-61
2023/08/25 06:44:05;;;;;;;4.80;2.30;;;;;;;37.93;27.70;100121.42;105607;1259;61240;-67
2023/08/25 06:46:33;;;;;;;4.10;2.70;;;;;;;38.05;26.89;100122.57;105625;1254;61237;-61
2023/08/25 06:49:00;;;;;;;3.90;2.30;;;;;;;38.17;26.91;100122.30;105708;1259;66036;-62
2023/08/25 06:51:27;;;;;;;4.00;2.70;;;;;;;38.35;26.91;100125.08;105688;1254;61244;-61
2023/08/25 06:53:54;;;;;;;3.30;2.70;;;;;;;38.57;26.69;100123.42;105658;1259;62801;-63
2023/08/25 06:56:21;;;;;;;3.40;2.50;;;;;;;38.76;26.87;100121.80;106031;1254;61339;-66
2023/08/25 06:58:48;;;;;;;3.40;2.60;;;;;;;38.99;27.08;100122.15;105838;1254;61138;-61
2023/08/25 07:01:15;;;;;;;5.10;3.30;;;;;;;39.25;26.67;100116.79;105690;1259;66740;-63
2023/08/25 07:03:42;;;;;;;4.60;3.00;;;;;;;39.43;26.36;100113.85;105625;1254;61350;-63
2023/08/25 07:06:10;;;;;;;3.60;3.00;;;;;;;39.55;26.28;100113.67;105844;1258;62848;-64
2023/08/25 07:08:37;;;;;;;4.80;3.50;;;;;;;39.59;26.17;100114.86;105451;1260;61419;-64
2023/08/25 07:11:04;;;;;;;4.40;3.20;;;;;;;39.63;25.74;100116.45;105697;1254;61173;-61
2023/08/25 07:13:31;;;;;;;4.00;3.20;;;;;;;39.64;25.69;100120.81;105630;1259;66969;-63
2023/08/25 07:15:58;;;;;;;3.40;2.70;;;;;;;39.67;26.07;100120.92;106074;1254;61250;-64
2023/08/25 07:18:25;;;;;;;5.10;2.90;;;;;;;39.49;26.42;100119.81;106118;1259;73306;-64
2023/08/25 07:20:52;;;;;;;4.60;3.10;;;;;;;39.47;26.49;100121.97;105549;1259;61227;-62
2023/08/25 07:23:19;;;;;;;4.80;2.90;;;;;;;39.60;26.28;100121.41;105622;1254;61269;-62
2023/08/25 07:25:46;;;;;;;4.40;3.10;;;;;;;39.73;26.32;100122.58;105670;1254;66115;-62
2023/08/25 07:28:14;;;;;;;4.80;2.90;;;;;;;39.85;25.94;100125.28;106048;1254;61346;-66
2023/08/25 07:30:41;;;;;;;4.50;2.90;;;;;;;40.01;25.91;100122.29;105915;1254;64101;-63
2023/08/25 07:33:08;;;;;;;4.30;2.70;;;;;;;40.11;25.58;100117.08;105718;1260;61354;-61
2023/08/25 07:35:35;;;;;;;7.30;2.40;;;;;;;40.15;25.23;100115.95;105678;1256;61323;-64
2023/08/25 07:38:03;;;;;;;6.40;3.40;;;;;;;40.15;24.87;100116.48;105797;1257;66853;-65
2023/08/25 07:40:31;;;;;;;4.20;2.40;;;;;;;40.04;24.98;100114.41;105871;1254;61273;-65
2023/08/25 07:43:01;;;;;;;5.50;2.70;;;;;;;40.06;25.03;100115.83;105565;1260;63382;-63
2023/08/25 07:45:29;;;;;;;3.70;2.20;;;;;;;40.06;25.09;100113.02;105685;1264;61238;-62
2023/08/25 07:47:59;;;;;;;2.90;2.20;;;;;;;40.18;24.81;100112.28;105954;1259;61225;-63
2023/08/25 07:50:29;;;;;;;5.10;2.30;;;;;;;40.40;24.18;100113.88;105511;1254;64878;-61
2023/08/25 07:52:57;;;;;;;17.50;4.00;;;;;;;40.54;23.64;100113.66;105548;1259;61106;-64
2023/08/25 07:55:24;;;;;;;3.70;1.90;;;;;;;40.49;23.47;100113.26;105631;1258;62683;-61
2023/08/25 07:57:51;;;;;;;2.30;1.70;;;;;;;40.24;23.40;100110.80;105817;1254;60692;-63
2023/08/25 08:00:19;;;;;;;4.40;2.00;;;;;;;39.90;23.99;100109.55;105413;1254;61163;-61
2023/08/25 08:02:46;;;;;;;3.90;1.90;;;;;;;39.75;24.50;100108.55;105837;1259;65905;-65
2023/08/25 08:05:17;;;;;;;3.70;1.90;;;;;;;39.55;24.58;100105.34;105645;1254;61273;-64
2023/08/25 08:07:45;;;;;;;3.60;1.70;;;;;;;39.36;24.88;100103.85;105511;1259;62837;-63
2023/08/25 08:10:12;;;;;;;5.00;1.70;;;;;;;39.42;24.57;100102.09;105704;1259;61249;-61
2023/08/25 08:12:43;;;;;;;5.40;1.70;;;;;;;39.64;23.87;100105.86;105782;1259;61209;-64
2023/08/25 08:15:10;;;;;;;2.20;1.40;;;;;;;39.83;23.52;100106.88;105627;1259;65903;-62
2023/08/25 08:17:38;;;;;;;3.00;1.50;;;;;;;40.02;23.43;100102.55;105420;1254;61358;-64
2023/08/25 08:20:09;;;;;;;2.60;1.50;;;;;;;40.10;23.02;100100.84;105584;1254;63057;-63
2023/08/25 08:22:36;;;;;;;5.00;2.00;;;;;;;39.85;22.57;100106.63;105807;1260;61257;-62
2023/08/25 08:25:03;;;;;;;3.60;1.70;;;;;;;39.14;22.89;100109.61;105672;1254;61156;-62
2023/08/25 08:27:31;;;;;;;3.40;1.70;;;;;;;38.49;23.48;100109.19;105902;1254;64963;-64
2023/08/25 08:30:04;;;;;;;2.90;1.80;;;;;;;37.83;24.34;100105.36;105525;1259;67075;-62
2023/08/25 08:32:36;;;;;;;2.50;1.40;;;;;;;37.39;24.83;100106.66;105733;1259;63607;-63
2023/08/25 08:35:09;;;;;;;4.00;1.70;;;;;;;36.92;25.23;100106.33;105626;1260;59973;-64
2023/08/25 08:37:37;;;;;;;4.00;1.30;;;;;;;36.49;25.40;100105.77;105305;1259;61313;-64
2023/08/25 08:40:05;;;;;;;3.40;1.80;;;;;;;36.20;26.15;100098.19;106289;1255;64817;-63
2023/08/25 08:42:33;;;;;;;2.60;1.50;;;;;;;35.85;26.39;100095.27;105662;1259;66797;-63
2023/08/25 08:45:08;;;;;;;4.20;1.70;;;;;;;35.40;27.03;100095.23;105969;1260;64044;-65
2023/08/25 08:47:36;;;;;;;4.80;1.70;;;;;;;35.06;28.50;100096.95;105637;1259;61564;-63
2023/08/25 08:50:06;;;;;;;6.50;1.70;;;;;;;35.07;28.90;100097.27;105957;1256;61310;-62
2023/08/25 08:52:33;;;;;;;3.20;1.70;;;;;;;35.26;28.30;100091.36;105591;1259;74568;-61
2023/08/25 08:55:00;;;;;;;3.20;1.70;;;;;;;35.54;28.00;100081.14;105588;1260;67060;-65
2023/08/25 08:57:28;;;;;;;2.60;1.30;;;;;;;35.85;27.99;100080.29;105467;1258;63959;-62
2023/08/25 08:59:59;;;;;;;2.70;1.70;;;;;;;36.03;27.68;100083.52;105946;1260;61224;-62
2023/08/25 09:02:28;;;;;;;2.90;1.40;;;;;;;36.25;27.52;100081.91;105763;1254;61224;-61
2023/08/25 09:04:57;;;;;;;3.60;1.50;;;;;;;36.35;27.15;100083.86;105655;1254;66087;-65
2023/08/25 09:07:31;;;;;;;3.20;1.20;;;;;;;36.55;27.34;100075.85;105666;1254;61208;-62
2023/08/25 09:09:58;;;;;;;3.30;1.60;;;;;;;36.99;26.75;100073.85;105470;1254;62923;-62
2023/08/25 09:12:25;;;;;;;3.10;1.40;;;;;;;37.42;25.78;100077.80;105626;1254;61339;-62
2023/08/25 09:14:52;;;;;;;3.40;1.40;;;;;;;37.67;25.02;100077.66;105963;1258;61358;-65
2023/08/25 09:17:19;;;;;;;2.40;1.30;;;;;;;37.75;25.12;100077.20;105317;1259;203770;-64
2023/08/25 09:19:46;;;;;;;3.10;1.40;;;;;;;37.75;25.06;100077.91;105848;1259;61343;-63
2023/08/25 09:22:15;;;;;;;4.60;1.70;;;;;;;37.71;24.90;100079.64;106101;1254;64047;-62
2023/08/25 09:24:43;;;;;;;3.10;1.20;;;;;;;37.46;25.38;100083.35;105849;1258;61298;-62
2023/08/25 09:27:26;;;;;;;3.00;1.60;;;;;;;37.17;25.78;100079.40;105654;1260;59655;-62
2023/08/25 09:30:03;;;;;;;6.30;1.50;;;;;;;37.12;25.95;100072.26;105725;1254;65800;-61
2023/08/25 09:32:30;;;;;;;3.30;1.40;;;;;;;37.22;25.69;100073.48;106204;1259;61339;-63
2023/08/25 09:35:11;;;;;;;2.00;1.40;;;;;;;37.20;25.27;100073.54;105687;1260;64659;-64
2023/08/25 09:37:42;;;;;;;2.60;1.20;;;;;;;36.99;25.47;100072.30;105577;1259;61333;-63
2023/08/25 09:40:15;;;;;;;6.70;1.60;;;;;;;36.99;25.22;100076.20;105575;1255;61101;-65
2023/08/25 09:42:42;;;;;;;3.50;1.50;;;;;;;37.09;25.00;100072.38;105855;1255;65856;-64
2023/08/25 09:45:11;;;;;;;2.70;1.40;;;;;;;37.29;25.11;100067.75;105573;1260;61262;-61
2023/08/25 09:47:38;;;;;;;2.80;1.60;;;;;;;37.42;25.45;100066.54;105636;1258;72825;-62
2023/08/25 09:50:05;;;;;;;5.60;2.10;;;;;;;37.41;25.52;100067.31;105610;1254;61356;-67
2023/08/25 09:52:34;;;;;;;3.40;1.70;;;;;;;37.31;24.97;100066.60;106347;1254;61104;-66
2023/08/25 09:55:01;;;;;;;2.60;1.50;;;;;;;37.01;25.04;100064.56;105720;1259;65894;-64
2023/08/25 09:57:32;;;;;;;2.10;1.40;;;;;;;36.63;25.53;100059.86;105492;1254;61330;-63
2023/08/25 09:59:59;;;;;;;3.60;1.30;;;;;;;36.48;26.08;100062.71;105593;1260;63785;-64
2023/08/25 10:02:26;;;;;;;4.60;2.00;;;;;;;36.38;25.84;100065.61;106168;1257;61340;-61
2023/08/25 10:04:58;;;;;;;4.30;1.90;;;;;;;36.03;26.56;100067.23;105603;1257;61225;-63
2023/08/25 10:07:25;;;;;;;3.80;2.10;;;;;;;35.50;27.20;100069.20;105632;1260;64555;-64
2023/08/25 10:09:52;;;;;;;2.50;1.50;;;;;;;34.96;27.64;100072.15;105469;1257;61289;-63
2023/08/25 10:12:19;;;;;;;3.50;1.80;;;;;;;34.47;28.18;100072.34;105487;1260;64058;-61
2023/08/25 10:14:47;;;;;;;3.10;1.90;;;;;;;33.99;28.55;100073.39;105518;1260;61218;-62
2023/08/25 10:17:14;;;;;;;3.40;2.10;;;;;;;33.49;29.41;100076.84;105978;1260;61244;-62
2023/08/25 10:19:41;;;;;;;11.60;2.50;;;;;;;33.13;29.84;100075.35;105456;1260;74709;-63
2023/08/25 10:22:09;;;;;;;3.40;1.70;;;;;;;32.86;30.63;100074.86;105517;1260;66231;-63
2023/08/25 10:24:36;;;;;;;7.90;2.70;;;;;;;32.59;31.38;100080.08;105900;1254;71448;-62
2023/08/25 10:27:03;;;;;;;5.40;2.40;;;;;;;32.30;31.96;100079.79;105773;1260;61237;-62
2023/08/25 10:29:30;;;;;;;4.00;2.10;;;;;;;32.09;32.64;100086.37;105509;1257;60526;-61
2023/08/25 10:32:01;;;;;;;7.30;2.40;;;;;;;31.91;33.66;100081.96;105539;1260;74526;-61
2023/08/25 10:34:32;;;;;;;3.40;2.20;;;;;;;31.75;34.59;100082.95;106104;1267;67157;-65
2023/08/25 10:37:11;;;;;;;;;;;;;;;31.65;35.04;100076.09;105629;1259;72939;-62
2023/08/25 10:39:57;;;;;;;5.90;2.00;;;;;;;31.61;35.68;100074.06;105657;1260;61225;-62
2023/08/25 10:42:32;;;;;;;5.40;2.00;;;;;;;31.76;37.18;100073.16;105633;1259;61279;-61
2023/08/25 10:45:04;;;;;;;2.90;2.00;;;;;;;32.13;37.04;100074.33;106276;1260;74723;-62
2023/08/25 10:47:45;;;;;;;5.00;2.50;;;;;;;32.33;35.41;100071.70;105663;1259;67130;-61
2023/08/25 10:50:13;;;;;;;4.00;1.90;;;;;;;32.40;34.98;100074.14;105517;1267;71349;-61
2023/08/25 10:52:44;;;;;;;5.50;2.00;;;;;;;32.49;34.66;100075.59;105689;1255;61263;-60
2023/08/25 10:55:32;;;;;;;3.20;2.20;;;;;;;32.52;34.36;100075.08;105598;1264;61237;-60
2023/08/25 10:58:05;;;;;;;4.60;2.60;;;;;;;32.39;33.78;100072.94;105683;1260;73526;-61
2023/08/25 11:00:34;;;;;;;3.10;1.60;;;;;;;32.23;34.50;100072.44;105618;1260;68078;-61
2023/08/25 11:03:01;;;;;;;3.50;2.10;;;;;;;32.05;34.60;100075.52;105580;1259;72665;-60
2023/08/25 11:05:28;;;;;;;3.80;2.20;;;;;;;31.87;34.82;100078.26;105558;1260;61145;-60
2023/08/25 11:07:56;;;;;;;4.80;2.30;;;;;;;31.64;35.62;100072.95;105713;1259;61301;-61
2023/08/25 11:10:27;;;;;;;3.80;2.30;;;;;;;31.46;37.26;100069.82;105746;1259;72701;-62
2023/08/25 11:12:54;;;;;;;4.60;2.20;;;;;;;31.34;37.68;100073.67;105700;1259;67216;-62
2023/08/25 11:15:36;;;;;;;3.10;2.00;;;;;;;31.18;38.16;100072.28;106277;1257;73211;-63
2023/08/25 11:18:04;;;;;;;18.20;3.90;;;;;;;30.96;38.27;100071.39;105484;1254;61260;-62
2023/08/25 11:20:32;;;;;;;4.00;2.00;;;;;;;30.87;39.66;100072.63;105760;1254;61186;-60